Time;durP1;ratioP1;P1;durP2;ratioP2;P2;SDS_P1;SDS_P2;PMS_P1;PMS_P2;Temp;Humidity;BMP_temperature;BMP_pressure;BME280_temperature;BME280_humidity;BME280_pressure;Samples;Min_cycle;Max_cycle;Signal;HPM_P1;HPM_P2
2023/12/04 00:01:52;;;;;;;11.88;6.15;;;;;;;-6.81;100.00;97466.06;5095785;28;20742;-78
2023/12/04 00:04:18;;;;;;;11.65;6.38;;;;;;;-6.82;100.00;97464.44;5096140;28;20485;-78
2023/12/04 00:06:44;;;;;;;10.20;5.72;;;;;;;-6.84;100.00;97463.75;5096515;28;20423;-78
2023/12/04 00:09:10;;;;;;;10.38;5.68;;;;;;;-6.86;100.00;97452.81;5096159;28;20396;-78
2023/12/04 00:11:36;;;;;;;9.82;5.82;;;;;;;-6.86;100.00;97441.69;5096197;28;20389;-78
2023/12/04 00:14:02;;;;;;;9.23;5.40;;;;;;;-6.87;100.00;97450.38;5096075;28;20418;-78
2023/12/04 00:16:29;;;;;;;9.55;5.75;;;;;;;-6.90;100.00;97451.44;5096265;28;20398;-78
2023/12/04 00:18:56;;;;;;;9.23;5.55;;;;;;;-6.92;100.00;97437.13;5097023;28;20409;-79
2023/12/04 00:21:22;;;;;;;9.80;5.60;;;;;;;-6.94;100.00;97426.97;5097881;28;20436;-79
2023/12/04 00:23:48;;;;;;;9.95;5.35;;;;;;;-6.98;100.00;97435.91;5098157;28;20401;-79
2023/12/04 00:26:15;;;;;;;8.90;5.60;;;;;;;-6.98;100.00;97427.38;5098177;28;20398;-79
2023/12/04 00:28:41;;;;;;;10.98;6.03;;;;;;;-6.98;100.00;97420.47;5101367;28;20421;-79
2023/12/04 00:31:08;;;;;;;10.38;5.53;;;;;;;-6.98;100.00;97411.94;5095872;28;20432;-79
2023/12/04 00:33:34;;;;;;;11.13;6.25;;;;;;;-6.92;100.00;97408.81;5096610;28;20811;-79
2023/12/04 00:36:02;;;;;;;10.45;5.43;;;;;;;-6.96;100.00;97405.72;5097115;28;20746;-79
2023/12/04 00:38:28;;;;;;;10.70;5.70;;;;;;;-7.00;100.00;97396.66;5096692;28;20397;-79
2023/12/04 00:40:54;;;;;;;8.80;4.95;;;;;;;-7.03;100.00;97402.91;5095978;28;20388;-79
2023/12/04 00:43:20;;;;;;;10.65;5.65;;;;;;;-7.02;100.00;97403.72;5095495;28;20409;-79
2023/12/04 00:45:46;;;;;;;10.18;5.80;;;;;;;-7.04;100.00;97403.84;5096088;28;20503;-79
2023/12/04 00:48:12;;;;;;;12.70;6.00;;;;;;;-7.06;100.00;97403.16;5097392;28;20484;-78
2023/12/04 00:50:38;;;;;;;12.23;5.57;;;;;;;-7.06;100.00;97399.78;5100269;28;20402;-79
2023/12/04 00:53:06;;;;;;;10.32;5.70;;;;;;;-7.06;100.00;97400.59;5100119;28;20778;-79
2023/12/04 00:55:32;;;;;;;9.75;5.20;;;;;;;-7.07;100.00;97398.19;5099256;28;20863;-79
2023/12/04 00:57:58;;;;;;;10.85;5.50;;;;;;;-7.09;100.00;97393.19;5099597;28;20443;-79
2023/12/04 01:00:24;;;;;;;10.65;5.80;;;;;;;-7.09;100.00;97387.22;5099699;28;20398;-79
2023/12/04 01:02:51;;;;;;;8.93;5.20;;;;;;;-7.10;100.00;97377.88;5099694;28;20401;-79
2023/12/04 01:05:17;;;;;;;9.57;5.32;;;;;;;-7.10;100.00;97383.84;5099278;28;20476;-79
2023/12/04 01:07:43;;;;;;;10.20;5.60;;;;;;;-7.10;100.00;97377.88;5100255;28;20386;-79
2023/12/04 01:10:11;;;;;;;11.18;6.25;;;;;;;-7.03;100.00;97371.22;5099209;28;20390;-79
2023/12/04 01:12:37;;;;;;;11.50;5.55;;;;;;;-7.10;100.00;97380.44;5100172;28;20416;-79
2023/12/04 01:15:04;;;;;;;9.15;5.03;;;;;;;-7.11;100.00;97384.78;5081610;28;20766;-79
2023/12/04 01:17:30;;;;;;;9.43;5.32;;;;;;;-7.11;100.00;97383.97;5099215;28;20473;-79
2023/12/04 01:19:57;;;;;;;10.93;5.80;;;;;;;-7.04;100.00;97385.03;5099392;28;20405;-79
2023/12/04 01:22:23;;;;;;;10.13;5.57;;;;;;;-7.10;100.00;97377.88;5099387;28;20499;-79
2023/12/04 01:24:49;;;;;;;11.55;6.05;;;;;;;-7.06;100.00;97372.28;5099203;28;20386;-79
2023/12/04 01:27:17;;;;;;;11.73;6.47;;;;;;;-6.95;100.00;97368.75;5098818;28;20390;-78
2023/12/04 01:29:43;;;;;;;10.77;5.75;;;;;;;-6.99;100.00;97359.69;5098784;28;20424;-78
2023/12/04 01:32:09;;;;;;;11.80;6.20;;;;;;;-7.02;100.00;97357.41;5098653;28;20390;-79
2023/12/04 01:34:35;;;;;;;10.77;5.63;;;;;;;-7.03;100.00;97354.03;5099138;28;20390;-79
2023/12/04 01:37:01;;;;;;;9.63;5.25;;;;;;;-7.04;100.00;97356.72;5098757;28;20520;-79
2023/12/04 01:39:27;;;;;;;8.33;5.40;;;;;;;-7.03;100.00;97343.72;5099025;28;20719;-79
2023/12/04 01:41:53;;;;;;;7.85;4.90;;;;;;;-7.02;100.00;97339.41;5099009;28;20397;-79
2023/12/04 01:44:22;;;;;;;8.40;4.72;;;;;;;-7.01;100.00;97341.03;5098914;28;20402;-79
2023/12/04 01:46:49;;;;;;;8.30;4.57;;;;;;;-6.99;100.00;97330.59;5099236;28;20439;-79
2023/12/04 01:49:15;;;;;;;8.15;4.70;;;;;;;-6.99;100.00;97336.53;5099280;28;20404;-79
2023/12/04 01:51:41;;;;;;;9.20;4.55;;;;;;;-6.98;100.00;97340.72;5099007;28;20428;-79
2023/12/04 01:54:08;;;;;;;7.25;4.07;;;;;;;-6.98;100.00;97340.72;5100429;28;20402;-79
2023/12/04 01:56:36;;;;;;;7.53;4.50;;;;;;;-6.97;100.00;97349.25;5099315;28;20390;-79
2023/12/04 01:59:03;;;;;;;8.10;4.43;;;;;;;-6.98;100.00;97339.91;5101667;28;20389;-79
2023/12/04 02:01:31;;;;;;;5.82;4.05;;;;;;;-6.97;100.00;97341.53;5101307;28;20764;-79
2023/12/04 02:04:00;;;;;;;7.68;4.45;;;;;;;-6.97;100.00;97333.81;5098388;28;20493;-79
2023/12/04 02:06:26;;;;;;;8.63;4.75;;;;;;;-6.96;100.00;97338.00;5097874;28;20398;-79
2023/12/04 02:08:52;;;;;;;7.05;4.53;;;;;;;-6.96;100.00;97349.13;5098204;28;20386;-79
2023/12/04 02:11:19;;;;;;;9.07;5.13;;;;;;;-6.99;100.00;97346.03;5098458;28;20440;-79
2023/12/04 02:13:45;;;;;;;6.80;4.65;;;;;;;-7.02;100.00;97339.41;5097703;28;20413;-79
2023/12/04 02:16:14;;;;;;;7.55;4.78;;;;;;;-7.04;100.00;97331.81;5098099;28;20425;-79
2023/12/04 02:18:43;;;;;;;8.30;5.00;;;;;;;-6.97;100.00;97326.09;5098917;28;20397;-79
2023/12/04 02:21:09;;;;;;;8.50;5.00;;;;;;;-7.06;100.00;97320.84;5099010;28;20406;-79
2023/12/04 02:23:35;;;;;;;7.35;4.57;;;;;;;-7.09;100.00;97317.78;5098691;28;20921;-79
2023/12/04 02:26:08;;;;;;;9.15;4.95;;;;;;;-7.08;100.00;97314.25;5100627;28;20458;-78
2023/12/04 02:28:37;;;;;;;10.05;5.72;;;;;;;-7.10;100.00;97314.38;5104367;28;20398;-78
2023/12/04 02:31:05;;;;;;;9.18;5.10;;;;;;;-7.14;100.00;97310.47;5100580;28;20889;-79
2023/12/04 02:33:32;;;;;;;8.30;4.93;;;;;;;-7.16;100.00;97314.97;5098794;28;20417;-78
2023/12/04 02:36:00;;;;;;;8.00;5.30;;;;;;;-7.16;100.00;97321.88;5098422;28;20393;-79
2023/12/04 02:38:27;;;;;;;9.80;5.50;;;;;;;-7.19;100.00;97322.94;5099469;28;20749;-79
2023/12/04 02:40:54;;;;;;;10.97;5.37;;;;;;;-7.19;100.00;97325.53;5097958;28;20839;-79
2023/12/04 02:43:21;;;;;;;9.68;5.18;;;;;;;-7.19;100.00;97327.28;5098407;28;20404;-79
2023/12/04 02:45:48;;;;;;;8.45;5.22;;;;;;;-7.18;100.00;97324.56;5098783;28;20390;-78
2023/12/04 02:48:14;;;;;;;9.73;5.63;;;;;;;-7.17;100.00;97312.53;5098872;28;20390;-78
2023/12/04 02:50:40;;;;;;;9.48;6.00;;;;;;;-7.12;100.00;97308.56;5098853;28;20394;-78
2023/12/04 02:53:06;;;;;;;11.52;6.35;;;;;;;-7.11;100.00;97299.09;5099084;28;20420;-79
2023/12/04 02:55:32;;;;;;;11.07;6.27;;;;;;;-7.11;100.00;97296.53;5105143;28;20886;-78
2023/12/04 02:57:58;;;;;;;8.80;4.93;;;;;;;-7.11;100.00;97278.53;5096913;28;20402;-78
2023/12/04 03:00:26;;;;;;;9.45;5.45;;;;;;;-7.11;100.00;97276.75;5096893;28;20412;-78
2023/12/04 03:02:52;;;;;;;10.68;6.15;;;;;;;-7.06;100.00;97276.31;5097156;28;20448;-78
2023/12/04 03:05:19;;;;;;;11.23;6.32;;;;;;;-7.11;100.00;97271.63;5096995;28;20401;-78
2023/12/04 03:07:46;;;;;;;9.20;5.30;;;;;;;-7.12;100.00;97267.41;5097256;28;20394;-78
2023/12/04 03:10:12;;;;;;;8.48;5.20;;;;;;;-7.12;100.00;97261.47;5097155;28;20398;-78
2023/12/04 03:12:38;;;;;;;8.70;4.80;;;;;;;-7.13;100.00;97252.94;5097975;28;20417;-78
2023/12/04 03:15:05;;;;;;;7.40;4.65;;;;;;;-7.14;100.00;97247.97;5097609;28;20426;-78
2023/12/04 03:17:32;;;;;;;9.07;5.07;;;;;;;-7.13;100.00;97249.56;5096517;28;20963;-77
2023/12/04 03:19:59;;;;;;;8.30;4.65;;;;;;;-7.13;100.00;97246.97;5096411;28;20398;-79
2023/12/04 03:22:25;;;;;;;10.40;6.07;;;;;;;-7.12;100.00;97246.84;5096772;28;20509;-79
2023/12/04 03:24:51;;;;;;;11.07;5.72;;;;;;;-7.10;100.00;97239.81;5096589;28;20393;-79
2023/12/04 03:27:17;;;;;;;10.25;5.38;;;;;;;-7.05;100.00;97236.78;5096294;28;20481;-78
2023/12/04 03:29:43;;;;;;;10.23;6.20;;;;;;;-7.05;100.00;97234.22;5096501;28;20805;-78
2023/12/04 03:32:09;;;;;;;10.50;5.63;;;;;;;-7.05;100.00;97231.63;5096563;28;20390;-78
2023/12/04 03:34:37;;;;;;;9.17;5.23;;;;;;;-7.06;100.00;97225.69;5096326;28;20649;-78
2023/12/04 03:37:03;;;;;;;7.57;4.85;;;;;;;-7.05;100.00;97213.63;5095906;28;20416;-78
2023/12/04 03:39:29;;;;;;;8.85;5.20;;;;;;;-7.04;100.00;97210.91;5096517;28;20416;-78
2023/12/04 03:41:55;;;;;;;8.02;4.85;;;;;;;-7.04;100.00;97203.19;5096433;28;20405;-78
2023/12/04 03:44:22;;;;;;;7.57;4.75;;;;;;;-7.03;100.00;97191.16;5095515;28;20896;-79
2023/12/04 03:46:48;;;;;;;6.33;4.27;;;;;;;-7.00;100.00;97187.50;5095579;28;20469;-78
2023/12/04 03:49:14;;;;;;;7.63;4.75;;;;;;;-7.00;100.00;97185.72;5096152;28;20493;-78
2023/12/04 03:51:41;;;;;;;8.63;5.22;;;;;;;-6.99;100.00;97189.13;5096136;28;20395;-78
2023/12/04 03:54:08;;;;;;;7.68;4.60;;;;;;;-6.99;100.00;97195.03;5095944;28;20410;-79
2023/12/04 03:56:34;;;;;;;8.98;5.20;;;;;;;-6.97;100.00;97189.75;5096942;28;20397;-79
2023/12/04 03:59:00;;;;;;;8.57;4.85;;;;;;;-6.97;100.00;97182.84;5095868;28;20452;-78
2023/12/04 04:01:26;;;;;;;8.48;5.30;;;;;;;-6.95;100.00;97186.09;5096330;28;20469;-79
2023/12/04 04:03:52;;;;;;;8.73;4.90;;;;;;;-6.93;100.00;97184.19;5097128;28;20856;-79
2023/12/04 04:06:18;;;;;;;8.73;5.00;;;;;;;-6.90;100.00;97190.78;5097073;28;20813;-79
2023/12/04 04:08:46;;;;;;;7.65;4.60;;;;;;;-6.88;100.00;97188.88;5102314;28;20432;-78
2023/12/04 04:11:12;;;;;;;6.75;4.65;;;;;;;-6.85;100.00;97194.56;5109924;28;20394;-78
2023/12/04 04:13:38;;;;;;;7.10;4.57;;;;;;;-6.82;100.00;97191.66;5100605;28;20790;-79
2023/12/04 04:16:05;;;;;;;7.20;4.45;;;;;;;-6.81;100.00;97193.28;5095484;28;20394;-79
2023/12/04 04:18:32;;;;;;;6.45;4.00;;;;;;;-6.79;100.00;97175.13;5096117;28;20440;-79
2023/12/04 04:20:58;;;;;;;8.60;5.20;;;;;;;-6.76;100.00;97177.41;5096038;28;20465;-78
2023/12/04 04:23:24;;;;;;;7.43;4.70;;;;;;;-6.76;100.00;97183.34;5095780;28;20397;-79
2023/12/04 04:25:51;;;;;;;6.68;4.47;;;;;;;-6.74;100.00;97186.59;5096086;28;20763;-79
2023/12/04 04:28:17;;;;;;;7.00;4.20;;;;;;;-6.72;100.00;97178.72;5096077;28;20437;-79
2023/12/04 04:30:44;;;;;;;7.60;4.28;;;;;;;-6.72;100.00;97186.44;5095964;28;20401;-79
2023/12/04 04:33:11;;;;;;;8.88;5.13;;;;;;;-6.71;100.00;97182.94;5096258;28;20428;-79
2023/12/04 04:35:37;;;;;;;7.38;4.60;;;;;;;-6.68;100.00;97185.19;5096085;28;20390;-79
2023/12/04 04:38:03;;;;;;;8.93;5.22;;;;;;;-6.66;100.00;97181.50;5096803;28;20397;-78
2023/12/04 04:40:30;;;;;;;8.10;4.68;;;;;;;-6.63;100.00;97179.59;5096861;28;20393;-79
2023/12/04 04:42:57;;;;;;;8.73;5.00;;;;;;;-6.61;100.00;97181.06;5096710;28;20939;-79
2023/12/04 04:45:23;;;;;;;8.38;5.03;;;;;;;-6.60;100.00;97182.69;5096434;28;20870;-79
2023/12/04 04:47:49;;;;;;;7.85;4.60;;;;;;;-6.58;100.00;97182.53;5097414;28;20751;-79
2023/12/04 04:50:16;;;;;;;7.50;4.60;;;;;;;-6.56;100.00;97172.91;5102182;28;20394;-78
2023/12/04 04:52:42;;;;;;;8.73;4.95;;;;;;;-6.56;100.00;97178.88;5099435;28;20940;-79
2023/12/04 04:55:08;;;;;;;6.90;4.53;;;;;;;-6.54;100.00;97174.34;5099232;28;20940;-79
2023/12/04 04:57:34;;;;;;;8.85;5.22;;;;;;;-6.52;100.00;97176.78;5100288;28;20424;-79
2023/12/04 05:00:02;;;;;;;7.95;4.47;;;;;;;-6.52;100.00;97177.59;5100979;28;20394;-79
2023/12/04 05:02:28;;;;;;;6.60;4.35;;;;;;;-6.49;100.00;97171.34;5100766;28;20470;-79
2023/12/04 05:04:54;;;;;;;6.03;4.15;;;;;;;-6.48;100.00;97167.81;5102050;28;20425;-79
2023/12/04 05:07:20;;;;;;;7.35;4.63;;;;;;;-6.48;100.00;97157.53;5101048;28;20402;-79
2023/12/04 05:09:47;;;;;;;6.10;4.25;;;;;;;-6.47;100.00;97157.38;5101569;28;20394;-79
2023/12/04 05:12:13;;;;;;;6.13;3.65;;;;;;;-6.46;100.00;97153.81;5126378;28;20387;-79
2023/12/04 05:14:39;;;;;;;5.07;3.70;;;;;;;-6.44;100.00;97145.94;5141628;28;20407;-79
2023/12/04 05:17:06;;;;;;;5.47;3.75;;;;;;;-6.43;100.00;97139.84;5121545;28;20397;-79
2023/12/04 05:19:33;;;;;;;7.07;4.30;;;;;;;-6.44;100.00;97136.47;5118037;28;20428;-78
2023/12/04 05:21:59;;;;;;;6.50;4.20;;;;;;;-6.43;100.00;97134.69;5120625;28;20380;-78
2023/12/04 05:24:25;;;;;;;4.72;3.47;;;;;;;-6.44;100.00;97139.03;5120528;28;20404;-79
2023/12/04 05:26:51;;;;;;;4.40;3.53;;;;;;;-6.44;100.00;97131.31;5118743;28;20400;-79
2023/12/04 05:29:17;;;;;;;5.73;3.90;;;;;;;-6.45;100.00;97121.97;5121857;28;20436;-79
2023/12/04 05:31:44;;;;;;;5.78;4.13;;;;;;;-6.44;100.00;97113.28;5111420;28;20404;-79
2023/12/04 05:34:11;;;;;;;5.57;4.10;;;;;;;-6.46;100.00;97107.47;5121991;28;20432;-80
2023/12/04 05:36:37;;;;;;;5.88;3.90;;;;;;;-6.47;100.00;97116.19;5106385;28;20461;-80
2023/12/04 05:39:04;;;;;;;5.78;3.70;;;;;;;-6.46;100.00;97106.66;5107128;28;20397;-80
2023/12/04 05:41:30;;;;;;;6.22;3.90;;;;;;;-6.47;100.00;97108.47;5108593;28;20417;-79
2023/12/04 05:43:56;;;;;;;5.97;4.10;;;;;;;-6.47;100.00;97112.81;5116547;27;20410;-79
2023/12/04 05:46:22;;;;;;;5.75;3.80;;;;;;;-6.47;100.00;97113.63;5126572;28;20419;-79
2023/12/04 05:48:49;;;;;;;5.90;3.80;;;;;;;-6.47;100.00;97108.47;5120879;28;20407;-79
2023/12/04 05:51:16;;;;;;;6.50;4.00;;;;;;;-6.46;100.00;97110.06;5111298;28;20951;-79
2023/12/04 05:53:42;;;;;;;5.50;3.95;;;;;;;-6.46;100.00;97107.47;5098301;28;20932;-79
2023/12/04 05:56:10;;;;;;;11.55;4.45;;;;;;;-6.43;100.00;97109.75;5120828;28;20479;-79
2023/12/04 05:58:36;;;;;;;7.20;4.47;;;;;;;-6.41;100.00;97114.75;5119378;28;20442;-79
2023/12/04 06:01:02;;;;;;;11.18;6.13;;;;;;;-6.37;100.00;97114.28;5119868;28;20389;-78
2023/12/04 06:03:28;;;;;;;13.93;7.30;;;;;;;-6.33;100.00;97112.25;5104098;28;20398;-79
2023/12/04 06:05:54;;;;;;;19.98;10.82;;;;;;;-6.26;100.00;97110.66;5096795;28;20524;-79
2023/12/04 06:08:22;;;;;;;20.95;9.93;;;;;;;-6.22;100.00;97113.72;5098122;28;20409;-79
2023/12/04 06:10:48;;;;;;;19.20;10.63;;;;;;;-6.19;100.00;97116.00;5099899;28;20394;-79
2023/12/04 06:13:14;;;;;;;20.90;11.18;;;;;;;-6.18;100.00;97117.63;5100332;28;20417;-79
2023/12/04 06:15:40;;;;;;;20.08;10.18;;;;;;;-6.16;100.00;97119.06;5097568;28;20463;-78
2023/12/04 06:18:07;;;;;;;18.33;10.43;;;;;;;-6.15;100.00;97114.72;5097500;28;20420;-79
2023/12/04 06:20:33;;;;;;;18.73;10.18;;;;;;;-6.15;100.00;97110.38;5097624;28;20432;-78
2023/12/04 06:23:00;;;;;;;15.25;8.98;;;;;;;-6.13;100.00;97100.75;5098637;28;20908;-78
2023/12/04 06:25:28;;;;;;;15.93;8.83;;;;;;;-6.13;100.00;97100.75;5100452;28;20402;-79
2023/12/04 06:27:55;;;;;;;14.15;8.02;;;;;;;-6.11;100.00;97098.03;5101827;28;20413;-80
2023/12/04 06:30:21;;;;;;;13.02;7.65;;;;;;;-6.11;100.00;97106.56;5098499;28;20394;-79
2023/12/04 06:32:48;;;;;;;11.85;6.80;;;;;;;-6.11;100.00;97098.84;5097507;28;20398;-79
2023/12/04 06:35:15;;;;;;;9.90;6.82;;;;;;;-6.11;100.00;97100.59;5079300;28;20480;-79
2023/12/04 06:37:42;;;;;;;9.93;6.20;;;;;;;-6.12;100.00;97097.22;5097206;28;20469;-79
2023/12/04 06:40:11;;;;;;;9.48;5.85;;;;;;;-6.12;100.00;97097.22;5097737;28;20872;-79
2023/12/04 06:42:39;;;;;;;8.23;5.30;;;;;;;-6.12;100.00;97088.69;5097581;28;20382;-79
2023/12/04 06:45:07;;;;;;;8.02;5.10;;;;;;;-6.13;100.00;97084.47;5112915;27;20776;-79
2023/12/04 06:47:34;;;;;;;7.38;4.70;;;;;;;-6.13;100.00;97082.72;5129269;27;20391;-79
2023/12/04 06:50:01;;;;;;;7.55;4.80;;;;;;;-6.12;100.00;97086.09;5128758;27;20394;-79
2023/12/04 06:52:27;;;;;;;8.18;5.50;;;;;;;-6.12;100.00;97089.50;5127327;27;20436;-79
2023/12/04 06:54:53;;;;;;;8.00;5.13;;;;;;;-6.11;100.00;97085.16;5135471;27;20440;-79
2023/12/04 06:57:19;;;;;;;8.20;5.40;;;;;;;-6.09;100.00;97083.22;5138897;27;20386;-79
2023/12/04 06:59:47;;;;;;;8.30;5.22;;;;;;;-6.08;100.00;97095.13;5136966;27;20469;-79
2023/12/04 07:02:13;;;;;;;8.48;4.93;;;;;;;-6.08;100.00;97093.34;5132123;27;20889;-78
2023/12/04 07:04:39;;;;;;;7.78;4.85;;;;;;;-6.07;100.00;97084.66;5112723;27;20436;-79
2023/12/04 07:07:06;;;;;;;6.20;4.35;;;;;;;-6.04;100.00;97078.41;5110583;27;20390;-79
2023/12/04 07:09:32;;;;;;;7.38;4.97;;;;;;;-6.03;100.00;97088.56;5128688;27;20737;-79
2023/12/04 07:11:59;;;;;;;6.20;4.43;;;;;;;-6.01;100.00;97076.31;5125658;27;20748;-79
2023/12/04 07:14:25;;;;;;;7.20;5.13;;;;;;;-5.98;100.00;97077.78;5125139;27;20493;-78
2023/12/04 07:16:52;;;;;;;7.60;4.82;;;;;;;-5.96;100.00;97066.38;5122043;28;20407;-79
2023/12/04 07:19:18;;;;;;;8.47;5.60;;;;;;;-5.93;100.00;97071.19;5125078;27;20390;-79
2023/12/04 07:21:45;;;;;;;11.25;6.43;;;;;;;-5.88;100.00;97065.59;5130496;27;20419;-79
2023/12/04 07:24:11;;;;;;;10.02;5.50;;;;;;;-5.85;100.00;97054.91;5129764;27;20403;-78
2023/12/04 07:26:38;;;;;;;10.63;5.80;;;;;;;-5.80;100.00;97064.78;5128270;27;20394;-78
2023/12/04 07:29:04;;;;;;;12.60;7.38;;;;;;;-5.76;100.00;97066.06;5129270;27;20393;-79
2023/12/04 07:31:30;;;;;;;12.50;6.40;;;;;;;-5.73;100.00;97061.41;5130330;27;20443;-79
2023/12/04 07:34:00;;;;;;;11.23;6.40;;;;;;;-5.69;100.00;97052.38;5130051;27;20414;-81
2023/12/04 07:36:26;;;;;;;9.27;6.00;;;;;;;-5.64;100.00;97051.94;5129243;27;20392;-79
2023/12/04 07:38:53;;;;;;;8.77;5.32;;;;;;;-5.61;100.00;97042.09;5118512;28;20503;-80
2023/12/04 07:41:20;;;;;;;9.15;5.60;;;;;;;-5.55;100.00;97050.97;5119589;28;20417;-79
2023/12/04 07:43:46;;;;;;;9.05;5.65;;;;;;;-5.53;100.00;97049.84;5120341;28;20384;-79
2023/12/04 07:46:13;;;;;;;11.48;6.63;;;;;;;-5.50;100.00;97054.69;5120342;28;20766;-80
2023/12/04 07:48:40;;;;;;;10.98;6.35;;;;;;;-5.47;100.00;97056.94;5107419;28;20400;-79
2023/12/04 07:51:08;;;;;;;12.18;7.22;;;;;;;-5.42;100.00;97048.75;5117886;28;20407;-80
2023/12/04 07:53:35;;;;;;;14.87;8.97;;;;;;;-5.41;100.00;97044.41;5119788;28;20444;-80
2023/12/04 07:56:03;;;;;;;12.15;7.55;;;;;;;-5.38;100.00;97046.66;5119172;28;20397;-80
2023/12/04 07:58:29;;;;;;;13.18;7.85;;;;;;;-5.34;100.00;97040.22;5119314;28;20732;-80
2023/12/04 08:00:56;;;;;;;12.32;6.18;;;;;;;-5.28;100.00;97037.78;5119670;28;20396;-80
2023/12/04 08:03:23;;;;;;;10.98;6.18;;;;;;;-5.21;100.00;97054.25;5118849;28;20503;-80
2023/12/04 08:05:50;;;;;;;9.98;6.25;;;;;;;-5.15;100.00;97051.00;5119684;28;20399;-80
2023/12/04 08:08:17;;;;;;;8.77;5.60;;;;;;;-5.07;100.00;97061.34;5120936;28;20396;-82
2023/12/04 08:10:44;;;;;;;8.43;5.28;;;;;;;-4.99;100.00;97044.25;5120487;28;20392;-82
2023/12/04 08:13:10;;;;;;;7.60;4.97;;;;;;;-4.92;100.00;97034.88;5122908;28;20416;-82
2023/12/04 08:15:36;;;;;;;6.73;5.20;;;;;;;-4.86;100.00;97035.03;5120617;28;20471;-81
2023/12/04 08:18:02;;;;;;;8.43;5.63;;;;;;;-4.82;100.00;97038.09;5122516;28;20388;-80
2023/12/04 08:20:28;;;;;;;8.63;6.07;;;;;;;-4.82;100.00;97030.34;5130042;27;20739;-78
2023/12/04 08:22:55;;;;;;;9.70;6.22;;;;;;;-4.82;100.00;97020.03;5131515;27;20827;-80
2023/12/04 08:25:23;;;;;;;8.65;5.43;;;;;;;-4.81;100.00;97029.41;5132464;27;20399;-81
2023/12/04 08:27:49;;;;;;;9.47;6.00;;;;;;;-4.79;100.00;97007.59;5131861;27;20480;-80
2023/12/04 08:30:15;;;;;;;10.15;6.50;;;;;;;-4.76;100.00;97001.31;5134210;27;20396;-80
2023/12/04 08:32:42;;;;;;;8.27;5.67;;;;;;;-4.70;100.00;96998.88;5126675;27;20397;-80
2023/12/04 08:35:08;;;;;;;6.43;5.03;;;;;;;-4.63;100.00;97001.59;5126288;27;20403;-80
2023/12/04 08:37:34;;;;;;;7.43;5.32;;;;;;;-4.54;100.00;97004.97;5129199;27;20389;-82
2023/12/04 08:40:00;;;;;;;8.27;5.72;;;;;;;-4.48;100.00;97001.72;5129483;27;20399;-81
2023/12/04 08:42:28;;;;;;;8.65;5.85;;;;;;;-4.43;100.00;97010.56;5129132;27;20394;-82
2023/12/04 08:44:54;;;;;;;8.32;5.55;;;;;;;-4.34;100.00;97006.97;5124630;28;20395;-82
2023/12/04 08:47:20;;;;;;;9.45;6.35;;;;;;;-4.27;100.00;96999.38;5128170;28;20396;-82
2023/12/04 08:49:46;;;;;;;8.67;5.80;;;;;;;-4.18;100.00;96998.38;5135967;28;20390;-80
2023/12/04 08:52:13;;;;;;;7.53;5.25;;;;;;;-4.12;100.00;96999.47;5126796;28;20386;-79
2023/12/04 08:54:41;;;;;;;8.52;5.63;;;;;;;-4.06;100.00;96994.41;5128942;28;20417;-80
2023/12/04 08:57:07;;;;;;;6.22;4.65;;;;;;;-4.01;100.00;96999.91;5123140;28;20388;-80
2023/12/04 08:59:35;;;;;;;6.10;4.65;;;;;;;-3.95;100.00;96998.41;5117166;28;20414;-80
2023/12/04 09:02:04;;;;;;;5.47;4.30;;;;;;;-3.91;100.00;96997.91;5127128;28;20383;-80
2023/12/04 09:04:31;;;;;;;5.53;4.20;;;;;;;-3.87;100.00;97010.50;5114580;28;20404;-81
2023/12/04 09:06:57;;;;;;;4.10;3.60;;;;;;;-3.85;100.00;97000.78;5133299;28;20481;-80
2023/12/04 09:09:23;;;;;;;5.72;4.15;;;;;;;-3.86;100.00;96994.81;5127115;27;20389;-79
2023/12/04 09:11:49;;;;;;;5.75;4.25;;;;;;;-3.85;100.00;97000.78;5129800;27;20483;-80
2023/12/04 09:14:15;;;;;;;6.63;4.30;;;;;;;-3.86;100.00;96994.81;5134950;27;20497;-80
2023/12/04 09:16:43;;;;;;;4.85;3.90;;;;;;;-3.84;100.00;96992.88;5131265;27;20397;-81
2023/12/04 09:19:10;;;;;;;5.73;4.07;;;;;;;-3.81;100.00;96995.09;5130070;27;20398;-80
2023/12/04 09:21:36;;;;;;;5.68;4.00;;;;;;;-3.78;100.00;96992.19;5132179;27;20394;-81
2023/12/04 09:24:02;;;;;;;6.43;4.03;;;;;;;-3.74;100.00;96990.06;5134037;27;20400;-81
2023/12/04 09:26:29;;;;;;;7.00;4.90;;;;;;;-3.70;100.00;96997.31;5131109;27;20392;-81
2023/12/04 09:28:55;;;;;;;5.50;4.20;;;;;;;-3.63;100.00;96993.06;5122271;27;20409;-81
2023/12/04 09:31:21;;;;;;;8.85;4.85;;;;;;;-3.55;100.00;96982.66;5122843;28;20407;-81
2023/12/04 09:33:48;;;;;;;8.57;5.72;;;;;;;-3.49;100.00;96981.16;5121846;27;20419;-81
2023/12/04 09:36:14;;;;;;;6.55;4.88;;;;;;;-3.42;100.00;96992.44;5128941;28;20464;-81
2023/12/04 09:38:41;;;;;;;6.93;4.40;;;;;;;-3.38;100.00;96988.50;5123842;27;20471;-81
2023/12/04 09:41:10;;;;;;;5.78;4.20;;;;;;;-3.35;100.00;96984.78;5130484;27;20522;-81
2023/12/04 09:43:37;;;;;;;6.20;4.63;;;;;;;-3.33;100.00;96983.63;5134760;27;20905;-81
2023/12/04 09:46:04;;;;;;;9.55;5.53;;;;;;;-3.35;100.00;96987.38;5137262;27;20389;-80
2023/12/04 09:48:31;;;;;;;7.30;5.47;;;;;;;-3.36;100.00;96983.16;5116331;28;20432;-82
2023/12/04 09:51:00;;;;;;;6.10;4.47;;;;;;;-3.37;100.00;96974.59;5128569;27;20403;-81
2023/12/04 09:53:29;;;;;;;5.88;4.18;;;;;;;-3.35;100.00;96972.63;5128501;27;20419;-81
2023/12/04 09:55:59;;;;;;;6.63;4.70;;;;;;;-3.34;100.00;96983.81;5127737;27;20384;-79
2023/12/04 09:58:32;;;;;;;6.50;4.57;;;;;;;-3.33;100.00;96998.34;5109418;27;20776;-80
2023/12/04 10:00:59;;;;;;;12.75;7.68;;;;;;;-3.33;100.00;96983.63;5139704;27;20934;-81
2023/12/04 10:03:26;;;;;;;10.73;7.18;;;;;;;-3.30;100.00;96964.34;5129634;27;20434;-80
2023/12/04 10:05:53;;;;;;;11.10;6.50;;;;;;;-3.26;100.00;96969.00;5138689;27;20888;-80
2023/12/04 10:08:21;;;;;;;8.52;5.40;;;;;;;-3.19;100.00;96974.28;5122030;28;20511;-81
2023/12/04 10:10:47;;;;;;;6.75;5.00;;;;;;;-3.12;100.00;96964.84;5124166;27;20478;-78
2023/12/04 10:13:14;;;;;;;6.70;4.60;;;;;;;-3.03;100.00;96955.22;5122984;27;20418;-79
2023/12/04 10:15:47;;;;;;;6.15;4.30;;;;;;;-2.94;100.00;96961.94;5124594;28;20398;-79
2023/12/04 10:18:25;;;;;;;11.70;7.13;;;;;;;-2.90;100.00;96960.59;5117800;28;20434;-78
2023/12/04 10:20:53;;;;;;;22.25;11.55;;;;;;;-2.93;100.00;96953.19;5115914;28;20833;-77
2023/12/04 10:23:21;;;;;;;20.25;11.65;;;;;;;-2.92;100.00;96952.19;5129724;27;20392;-77
2023/12/04 10:25:52;;;;;;;20.47;11.70;;;;;;;-2.90;100.00;96951.03;5117378;27;20407;-77
2023/12/04 10:28:18;;;;;;;20.20;10.70;;;;;;;-2.88;100.00;96961.22;5126860;27;20426;-77
2023/12/04 10:30:45;;;;;;;20.40;11.00;;;;;;;-2.83;100.00;96964.09;5138256;27;20438;-77
2023/12/04 10:33:13;;;;;;;24.30;11.57;;;;;;;-2.83;100.00;96951.94;5137904;27;20916;-78
2023/12/04 10:35:40;;;;;;;20.17;11.07;;;;;;;-2.77;100.00;96943.47;5120949;27;20429;-77
2023/12/04 10:38:08;;;;;;;16.83;9.55;;;;;;;-2.69;100.00;96939.16;5138741;27;20402;-77
2023/12/04 10:40:36;;;;;;;15.35;9.27;;;;;;;-2.61;100.00;96932.13;5136370;27;20383;-77
2023/12/04 10:43:11;;;;;;;16.67;9.32;;;;;;;-2.50;100.00;96920.50;5136652;27;20387;-78
2023/12/04 10:45:39;;;;;;;14.88;9.20;;;;;;;-2.39;100.00;96914.84;5136094;27;20379;-77
2023/12/04 10:48:06;;;;;;;17.40;10.27;;;;;;;-2.33;100.00;96906.34;5136820;27;20513;-77
2023/12/04 10:50:34;;;;;;;18.45;10.05;;;;;;;-2.24;100.00;96905.25;5136324;27;20785;-77
2023/12/04 10:53:04;;;;;;;15.23;9.23;;;;;;;-2.19;100.00;96900.34;5136608;27;20393;-77
2023/12/04 10:55:30;;;;;;;13.77;8.37;;;;;;;-2.14;100.00;96899.78;5136494;27;20394;-78
2023/12/04 10:57:59;;;;;;;13.13;8.33;;;;;;;-2.08;100.00;96896.44;5138089;27;20658;-77
2023/12/04 11:00:28;;;;;;;11.40;7.38;;;;;;;-2.02;100.00;96891.34;5137541;27;20482;-77
2023/12/04 11:02:56;;;;;;;9.07;6.20;;;;;;;-1.90;100.00;96867.50;5128503;27;20742;-78
2023/12/04 11:05:25;;;;;;;7.68;5.30;;;;;;;-1.77;100.00;96872.81;5116664;28;20392;-78
2023/12/04 11:07:54;;;;;;;6.22;4.70;;;;;;;-1.63;100.00;96866.75;5116701;28;20385;-78
2023/12/04 11:10:25;;;;;;;6.20;4.65;;;;;;;-1.54;100.00;96855.25;5117770;28;20395;-77
2023/12/04 11:12:56;;;;;;;6.88;5.10;;;;;;;-1.46;100.00;96865.50;5117485;28;20782;-77
2023/12/04 11:15:25;;;;;;;6.47;4.72;;;;;;;-1.42;100.00;96866.72;5118003;28;20389;-78
2023/12/04 11:17:59;;;;;;;8.33;6.00;;;;;;;-1.41;100.00;96857.13;5117483;28;20389;-78
2023/12/04 11:20:27;;;;;;;8.98;6.30;;;;;;;-1.41;100.00;96860.53;5116108;28;20470;-78